createdAt,value
2023-02-19T00:01:16.338Z,86.33
2023-02-19T00:03:32.915Z,85.22
2023-02-19T00:05:49.698Z,85.78
2023-02-19T00:08:06.188Z,85.92
2023-02-19T00:10:22.629Z,86.74
2023-02-19T00:12:39.136Z,87.30
2023-02-19T00:14:55.935Z,86.97
2023-02-19T00:17:12.412Z,86.33
2023-02-19T00:19:28.779Z,86.87
2023-02-19T00:21:45.144Z,86.78
2023-02-19T00:24:01.864Z,87.16
2023-02-19T00:26:18.990Z,86.59
2023-02-19T00:28:35.434Z,87.21
2023-02-19T00:30:52.218Z,87.63
2023-02-19T00:33:08.461Z,87.10
2023-02-19T00:35:24.747Z,86.13
2023-02-19T00:37:41.124Z,87.40
2023-02-19T00:39:57.815Z,87.64
2023-02-19T00:42:14.615Z,88.53
2023-02-19T00:44:31.029Z,89.11
2023-02-19T00:46:47.885Z,89.45
2023-02-19T00:49:04.411Z,89.90
2023-02-19T00:51:20.962Z,90.47
2023-02-19T00:53:37.315Z,90.40
2023-02-19T00:55:53.688Z,89.62
2023-02-19T00:58:10.068Z,88.93
2023-02-19T01:00:26.798Z,89.78
2023-02-19T01:02:43.290Z,89.16
2023-02-19T01:04:59.916Z,89.99
2023-02-19T01:07:16.274Z,90.27
2023-02-19T01:09:32.769Z,90.17
2023-02-19T01:11:49.470Z,88.63
2023-02-19T01:14:05.961Z,87.78
2023-02-19T01:16:22.484Z,88.60
2023-02-19T01:18:39.023Z,88.96
2023-02-19T01:20:55.371Z,89.00
2023-02-19T01:23:11.758Z,88.12
2023-02-19T01:25:28.072Z,87.40
2023-02-19T01:27:44.526Z,87.56
2023-02-19T01:30:01.056Z,87.56
2023-02-19T01:32:17.849Z,87.02
2023-02-19T01:34:34.358Z,88.09
2023-02-19T01:36:51.172Z,88.32
2023-02-19T01:39:07.546Z,88.96
2023-02-19T01:41:24.056Z,87.84
2023-02-19T01:43:40.540Z,88.68
2023-02-19T01:45:56.924Z,88.23
2023-02-19T01:48:13.465Z,88.62
2023-02-19T01:50:29.934Z,87.92
2023-02-19T01:52:46.626Z,88.24
2023-02-19T01:55:02.991Z,88.18
2023-02-19T01:57:19.522Z,88.24
2023-02-19T01:59:36.242Z,87.82
2023-02-19T02:01:53.039Z,88.37
2023-02-19T02:04:09.818Z,88.10
2023-02-19T02:06:26.248Z,87.73
2023-02-19T02:08:42.821Z,87.79
2023-02-19T02:10:59.286Z,87.11
2023-02-19T02:13:15.640Z,86.93
2023-02-19T02:15:31.975Z,86.60
2023-02-19T02:17:48.771Z,85.40
2023-02-19T02:20:05.131Z,85.71
2023-02-19T02:22:21.599Z,85.19
2023-02-19T02:24:38.105Z,86.17
2023-02-19T02:26:54.494Z,86.20
2023-02-19T02:29:10.869Z,87.31
2023-02-19T02:31:27.747Z,87.22
2023-02-19T02:33:44.494Z,86.51
2023-02-19T02:36:00.869Z,87.37
2023-02-19T02:38:17.339Z,87.67
2023-02-19T02:40:34.105Z,87.44
2023-02-19T02:42:50.467Z,87.30
2023-02-19T02:45:06.876Z,86.05
2023-02-19T02:47:23.254Z,86.74
2023-02-19T02:49:40.023Z,86.03
2023-02-19T02:51:56.457Z,85.85
2023-02-19T02:54:13.021Z,85.86
2023-02-19T02:56:29.423Z,85.78
2023-02-19T02:58:45.943Z,86.52
2023-02-19T03:01:02.733Z,88.01
2023-02-19T03:03:19.547Z,88.81
2023-02-19T03:05:35.940Z,88.97
2023-02-19T03:07:52.393Z,89.25
2023-02-19T03:10:08.755Z,88.89
2023-02-19T03:12:25.089Z,89.67
2023-02-19T03:14:41.395Z,90.02
2023-02-19T03:16:57.894Z,90.18
2023-02-19T03:19:14.764Z,89.95
2023-02-19T03:21:31.110Z,90.90
2023-02-19T03:23:47.643Z,89.39
2023-02-19T03:26:04.069Z,90.79
2023-02-19T03:28:20.656Z,89.04
2023-02-19T03:30:37.377Z,90.44
2023-02-19T03:32:53.829Z,89.48
2023-02-19T03:35:10.295Z,88.96
2023-02-19T03:37:26.742Z,88.91
2023-02-19T03:39:43.081Z,88.64
2023-02-19T03:41:59.365Z,89.38
2023-02-19T03:44:15.671Z,89.59
2023-02-19T03:46:32.298Z,89.52
2023-02-19T03:48:48.645Z,88.45
2023-02-19T03:51:05.247Z,87.57
2023-02-19T03:53:21.559Z,89.21
2023-02-19T03:55:38.073Z,88.46
2023-02-19T03:57:54.364Z,88.81
2023-02-19T04:00:10.798Z,88.72
2023-02-19T04:02:27.249Z,89.83
2023-02-19T04:04:43.531Z,90.48
2023-02-19T04:07:00.197Z,90.67
2023-02-19T04:09:16.514Z,89.42
2023-02-19T04:11:32.953Z,89.62
2023-02-19T04:13:49.281Z,90.42
2023-02-19T04:16:05.663Z,90.72
2023-02-19T04:18:22.061Z,91.99
2023-02-19T04:20:38.318Z,90.71
2023-02-19T04:22:54.626Z,90.72
2023-02-19T04:25:11.289Z,90.76
2023-02-19T04:27:27.740Z,91.13
2023-02-19T04:29:44.245Z,91.19
2023-02-19T04:32:00.679Z,92.06
2023-02-19T04:34:17.071Z,93.23
2023-02-19T04:36:33.508Z,93.76
2023-02-19T04:38:49.804Z,92.99
2023-02-19T04:41:06.104Z,93.66
2023-02-19T04:43:22.473Z,92.45
2023-02-19T04:45:38.746Z,92.18
2023-02-19T04:47:55.135Z,93.24
2023-02-19T04:50:11.838Z,93.51
2023-02-19T04:52:28.296Z,93.47
2023-02-19T04:54:44.589Z,92.90
2023-02-19T04:57:01.080Z,93.17
2023-02-19T04:59:17.397Z,92.13
2023-02-19T05:01:33.888Z,92.51
2023-02-19T05:03:50.321Z,92.89
2023-02-19T05:06:06.772Z,90.93
2023-02-19T05:08:23.054Z,91.19
2023-02-19T05:10:39.534Z,91.28
2023-02-19T05:12:57.959Z,90.30
2023-02-19T05:15:14.361Z,89.88
2023-02-19T05:17:30.760Z,89.35
2023-02-19T05:19:47.472Z,89.21
2023-02-19T05:22:03.724Z,87.52
2023-02-19T05:24:20.364Z,88.04
2023-02-19T05:26:36.750Z,89.48
2023-02-19T05:28:53.152Z,89.49
2023-02-19T05:31:10.158Z,87.70
2023-02-19T05:33:26.763Z,88.76
2023-02-19T05:35:43.442Z,88.03
2023-02-19T05:37:59.992Z,87.39
2023-02-19T05:40:16.632Z,87.39
2023-02-19T05:42:32.955Z,87.27
2023-02-19T05:44:49.588Z,87.55
2023-02-19T05:47:05.923Z,86.80
2023-02-19T05:49:22.373Z,87.57
2023-02-19T05:51:38.687Z,86.27
2023-02-19T05:53:55.360Z,86.79
2023-02-19T05:56:12.006Z,86.56
2023-02-19T05:58:28.280Z,86.08
2023-02-19T06:00:44.611Z,86.49
2023-02-19T06:03:01.191Z,87.12
2023-02-19T06:05:17.576Z,87.61
2023-02-19T06:07:33.907Z,86.70
2023-02-19T06:09:50.202Z,86.83
2023-02-19T06:12:06.654Z,86.70
2023-02-19T06:14:23.153Z,86.92
2023-02-19T06:16:39.576Z,86.19
2023-02-19T06:18:55.819Z,86.36
2023-02-19T06:21:12.713Z,85.86
2023-02-19T06:23:29.295Z,86.55
2023-02-19T06:25:45.727Z,85.95
2023-02-19T06:28:02.020Z,85.58
2023-02-19T06:30:18.403Z,85.12
2023-02-19T06:32:35.127Z,85.78
2023-02-19T06:34:51.810Z,86.65
2023-02-19T06:37:08.132Z,85.08
2023-02-19T06:39:24.760Z,86.37
2023-02-19T06:41:41.498Z,85.73
2023-02-19T06:43:57.855Z,85.49
2023-02-19T06:46:14.412Z,85.49
2023-02-19T06:48:31.155Z,85.13
2023-02-19T06:50:47.619Z,86.23
2023-02-19T06:53:04.018Z,85.66
2023-02-19T06:55:20.720Z,85.22
2023-02-19T06:57:37.016Z,85.82
2023-02-19T06:59:53.347Z,85.44
2023-02-19T07:02:09.779Z,84.84
2023-02-19T07:04:26.566Z,84.97
2023-02-19T07:06:42.943Z,85.66
2023-02-19T07:08:59.503Z,85.82
2023-02-19T07:11:15.757Z,84.52
2023-02-19T07:13:32.396Z,83.79
2023-02-19T07:15:50.531Z,84.75
2023-02-19T07:18:08.740Z,84.56
2023-02-19T07:20:25.063Z,84.83
2023-02-19T07:22:41.360Z,84.41
2023-02-19T07:24:58.023Z,85.45
2023-02-19T07:27:14.423Z,85.62
2023-02-19T07:29:30.676Z,84.22
2023-02-19T07:31:47.045Z,84.10
2023-02-19T07:34:03.701Z,84.30
2023-02-19T07:36:20.063Z,83.94
2023-02-19T07:38:36.387Z,84.55
2023-02-19T07:40:52.810Z,84.78
2023-02-19T07:43:09.284Z,84.18
2023-02-19T07:45:25.743Z,84.05
2023-02-19T07:47:42.489Z,84.63
2023-02-19T07:49:58.860Z,84.55
2023-02-19T07:52:15.194Z,85.00
2023-02-19T07:54:31.916Z,83.80
2023-02-19T07:56:48.425Z,83.79
2023-02-19T07:59:04.792Z,84.18
2023-02-19T08:01:21.305Z,84.08
2023-02-19T08:03:37.783Z,83.99
2023-02-19T08:05:54.118Z,83.21
2023-02-19T08:08:10.816Z,83.37
2023-02-19T08:10:27.349Z,83.37
2023-02-19T08:12:43.719Z,84.61
2023-02-19T08:15:00.403Z,85.44
2023-02-19T08:17:16.880Z,84.82
2023-02-19T08:19:33.182Z,85.78
2023-02-19T08:21:49.724Z,86.58
2023-02-19T08:24:06.039Z,85.60
2023-02-19T08:26:22.517Z,86.04
2023-02-19T08:28:38.997Z,86.67
2023-02-19T08:30:55.429Z,87.06
2023-02-19T08:33:11.676Z,86.73
2023-02-19T08:35:28.138Z,87.23
2023-02-19T08:37:44.567Z,86.48
2023-02-19T08:40:01.035Z,87.03
2023-02-19T08:42:17.426Z,86.59
2023-02-19T08:44:33.866Z,86.41
2023-02-19T08:46:50.377Z,85.88
2023-02-19T08:49:07.086Z,85.60
2023-02-19T08:51:23.519Z,84.94
2023-02-19T08:53:39.822Z,84.42
2023-02-19T08:55:56.287Z,84.09
2023-02-19T08:58:13.019Z,84.78
2023-02-19T09:00:29.444Z,83.80
2023-02-19T09:02:45.906Z,84.91
2023-02-19T09:05:02.629Z,84.44
2023-02-19T09:07:19.345Z,85.02
2023-02-19T09:09:35.671Z,83.22
2023-02-19T09:11:52.163Z,84.03
2023-02-19T09:14:08.628Z,81.74
2023-02-19T09:16:25.888Z,80.59
2023-02-19T09:18:42.358Z,79.53
2023-02-19T09:20:58.849Z,79.95
2023-02-19T09:23:15.339Z,78.90
2023-02-19T09:25:31.801Z,78.89
2023-02-19T09:27:48.468Z,78.63
2023-02-19T09:30:05.205Z,77.79
2023-02-19T09:32:21.856Z,77.46
2023-02-19T09:34:38.363Z,78.19
2023-02-19T09:36:54.657Z,77.33
2023-02-19T09:39:10.989Z,78.42
2023-02-19T09:41:27.674Z,77.73
2023-02-19T09:43:44.494Z,77.41
2023-02-19T09:46:00.960Z,77.53
2023-02-19T09:48:17.524Z,76.22
2023-02-19T09:50:33.983Z,76.50
2023-02-19T09:52:50.321Z,77.03
2023-02-19T09:55:07.034Z,76.95
2023-02-19T09:57:23.709Z,75.54
2023-02-19T09:59:40.081Z,75.62
2023-02-19T10:01:56.468Z,76.19
2023-02-19T10:04:12.786Z,75.91
2023-02-19T10:06:29.527Z,75.69
2023-02-19T10:08:46.120Z,76.31
2023-02-19T10:11:02.806Z,75.89
2023-02-19T10:13:19.219Z,75.05
2023-02-19T10:15:35.647Z,74.75
2023-02-19T10:17:52.384Z,75.61
2023-02-19T10:20:09.094Z,73.40
2023-02-19T10:22:25.419Z,72.65
2023-02-19T10:24:41.835Z,73.31
2023-02-19T10:26:58.296Z,73.49
2023-02-19T10:29:14.669Z,73.33
2023-02-19T10:31:31.032Z,72.80
2023-02-19T10:33:47.769Z,73.01
2023-02-19T10:36:04.240Z,71.97
2023-02-19T10:38:20.551Z,72.89
2023-02-19T10:40:37.362Z,72.08
2023-02-19T10:42:54.028Z,72.54
2023-02-19T10:45:10.473Z,71.26
2023-02-19T10:47:26.912Z,70.95
2023-02-19T10:49:43.586Z,70.74
2023-02-19T10:51:59.922Z,70.41
2023-02-19T10:54:16.382Z,70.14
2023-02-19T10:56:32.736Z,71.94
2023-02-19T10:58:49.231Z,70.83
2023-02-19T11:01:06.291Z,70.50
2023-02-19T11:03:22.660Z,71.97
2023-02-19T11:05:39.333Z,71.67
2023-02-19T11:07:55.806Z,69.79
2023-02-19T11:10:12.514Z,72.17
2023-02-19T11:12:28.956Z,72.10
2023-02-19T11:14:45.415Z,71.17
2023-02-19T11:17:02.214Z,70.51
2023-02-19T11:19:19.024Z,70.56
2023-02-19T11:21:35.476Z,70.24
2023-02-19T11:23:52.246Z,71.65
2023-02-19T11:26:08.581Z,70.45
2023-02-19T11:28:25.091Z,71.77
2023-02-19T11:30:41.494Z,72.28
2023-02-19T11:32:58.526Z,70.97
2023-02-19T11:35:14.847Z,72.04
2023-02-19T11:37:31.541Z,70.15
2023-02-19T11:39:48.180Z,70.88
2023-02-19T11:42:04.883Z,70.26
2023-02-19T11:44:21.638Z,70.08
2023-02-19T11:46:38.350Z,68.99
2023-02-19T11:48:54.743Z,70.25
2023-02-19T11:51:11.553Z,70.49
2023-02-19T11:53:27.946Z,71.14
2023-02-19T11:55:44.388Z,72.67
2023-02-19T11:58:01.019Z,72.79
2023-02-19T12:00:17.803Z,74.05
2023-02-19T12:02:34.226Z,73.68
2023-02-19T12:04:50.755Z,73.87
2023-02-19T12:07:07.085Z,73.91
2023-02-19T12:09:24.101Z,75.03
2023-02-19T12:11:40.504Z,74.63
2023-02-19T12:13:56.953Z,75.16
2023-02-19T12:16:13.435Z,74.88
2023-02-19T12:18:30.162Z,74.92
2023-02-19T12:20:46.652Z,74.44
2023-02-19T12:23:03.461Z,74.84
2023-02-19T12:25:19.790Z,75.43
2023-02-19T12:27:36.292Z,75.71
2023-02-19T12:29:52.595Z,76.15
2023-02-19T12:32:09.104Z,76.23
2023-02-19T12:34:25.497Z,74.61
2023-02-19T12:36:42.202Z,75.21
2023-02-19T12:38:58.632Z,75.63
2023-02-19T12:41:15.245Z,73.37
2023-02-19T12:43:31.940Z,75.20
2023-02-19T12:45:48.501Z,74.60
2023-02-19T12:48:05.006Z,75.58
2023-02-19T12:50:21.812Z,74.05
2023-02-19T12:52:38.220Z,74.18
2023-02-19T12:54:55.878Z,72.75
2023-02-19T12:57:12.802Z,73.29
2023-02-19T12:59:29.231Z,73.77
2023-02-19T13:01:45.606Z,74.57
2023-02-19T13:04:02.106Z,74.70
2023-02-19T13:06:18.865Z,75.67
2023-02-19T13:08:36.576Z,74.93
2023-02-19T13:10:54.157Z,74.08
2023-02-19T13:13:10.886Z,74.04
2023-02-19T13:15:27.206Z,73.54
2023-02-19T13:17:43.894Z,72.53
2023-02-19T13:20:00.255Z,72.58
2023-02-19T13:22:17.001Z,72.54
2023-02-19T13:24:33.795Z,72.79
2023-02-19T13:26:50.089Z,70.63
2023-02-19T13:29:06.370Z,70.99
2023-02-19T13:31:22.931Z,72.66
2023-02-19T13:33:39.460Z,70.07
2023-02-19T13:35:55.998Z,69.83
2023-02-19T13:38:12.332Z,69.46
2023-02-19T13:40:29.112Z,69.24
2023-02-19T13:42:45.825Z,69.79
2023-02-19T13:45:02.279Z,69.39
2023-02-19T13:47:18.911Z,71.10
2023-02-19T13:49:35.324Z,69.93
2023-02-19T13:51:51.783Z,70.88
2023-02-19T13:54:08.110Z,70.90
2023-02-19T13:56:24.585Z,71.89
2023-02-19T13:58:41.120Z,72.10
2023-02-19T14:00:57.754Z,73.85
2023-02-19T14:03:14.085Z,72.84
2023-02-19T14:05:30.455Z,73.09
2023-02-19T14:07:46.872Z,72.22
2023-02-19T14:10:03.236Z,71.11
2023-02-19T14:12:19.862Z,70.60
2023-02-19T14:14:36.232Z,70.58
2023-02-19T14:16:52.827Z,70.27
2023-02-19T14:19:09.162Z,70.77
2023-02-19T14:21:25.652Z,69.97
2023-02-19T14:23:43.458Z,71.12
2023-02-19T14:25:59.903Z,70.22
2023-02-19T14:28:16.281Z,70.13
2023-02-19T14:30:33.016Z,70.26
2023-02-19T14:32:54.509Z,70.28
2023-02-19T14:35:15.199Z,70.75
2023-02-19T14:37:31.742Z,70.79
2023-02-19T14:39:48.474Z,72.21
2023-02-19T14:42:04.877Z,70.97
2023-02-19T14:44:21.523Z,71.23
2023-02-19T14:46:37.903Z,72.57
2023-02-19T14:48:54.242Z,71.66
2023-02-19T14:51:11.101Z,72.00
2023-02-19T14:53:27.608Z,71.23
2023-02-19T14:55:44.253Z,71.70
2023-02-19T14:58:00.704Z,72.10
2023-02-19T15:00:17.012Z,72.77
2023-02-19T15:02:33.418Z,73.28
2023-02-19T15:04:49.900Z,74.11
2023-02-19T15:07:06.405Z,72.95
2023-02-19T15:09:22.718Z,73.01
2023-02-19T15:11:39.127Z,72.95
2023-02-19T15:13:57.230Z,73.09
2023-02-19T15:16:14.100Z,73.42
2023-02-19T15:18:30.648Z,74.71
2023-02-19T15:20:47.367Z,75.44
2023-02-19T15:23:04.077Z,76.02
2023-02-19T15:25:20.474Z,75.74
2023-02-19T15:27:36.816Z,75.70
2023-02-19T15:29:53.798Z,76.83
2023-02-19T15:32:10.264Z,76.93
2023-02-19T15:34:26.590Z,75.79
2023-02-19T15:36:43.067Z,76.44
2023-02-19T15:38:59.433Z,76.91
2023-02-19T15:41:15.911Z,77.30
2023-02-19T15:43:32.452Z,77.00
2023-02-19T15:45:48.720Z,77.26
2023-02-19T15:48:05.205Z,78.25
2023-02-19T15:50:21.644Z,79.35
2023-02-19T15:52:38.002Z,78.92
2023-02-19T15:54:54.409Z,79.08
2023-02-19T15:57:10.730Z,79.85
2023-02-19T15:59:27.050Z,80.36
2023-02-19T16:01:43.693Z,80.83
2023-02-19T16:04:00.412Z,80.28
2023-02-19T16:06:16.852Z,79.96
2023-02-19T16:08:33.158Z,79.96
2023-02-19T16:10:49.453Z,79.15
2023-02-19T16:13:05.764Z,79.99
2023-02-19T16:15:22.290Z,79.99
2023-02-19T16:17:38.953Z,80.98
2023-02-19T16:19:55.661Z,78.92
2023-02-19T16:22:11.907Z,79.00
2023-02-19T16:24:28.617Z,80.32
2023-02-19T16:26:45.409Z,81.34
2023-02-19T16:29:01.685Z,79.72
2023-02-19T16:31:18.107Z,79.73
2023-02-19T16:33:34.638Z,79.72
2023-02-19T16:35:51.139Z,81.12
2023-02-19T16:38:07.431Z,79.89
2023-02-19T16:40:23.891Z,79.42
2023-02-19T16:42:40.207Z,78.70
2023-02-19T16:44:56.553Z,79.29
2023-02-19T16:47:13.243Z,79.77
2023-02-19T16:49:29.566Z,79.97
2023-02-19T16:51:45.960Z,79.19
2023-02-19T16:54:02.503Z,78.71
2023-02-19T16:56:19.014Z,79.12
2023-02-19T16:58:36.433Z,79.80
2023-02-19T17:00:53.874Z,80.08
2023-02-19T17:03:10.368Z,79.74
2023-02-19T17:05:26.712Z,79.30
2023-02-19T17:07:43.169Z,79.90
2023-02-19T17:09:59.721Z,81.50
2023-02-19T17:12:16.092Z,80.34
2023-02-19T17:14:32.572Z,81.11
2023-02-19T17:16:49.100Z,80.63
2023-02-19T17:19:05.542Z,81.79
2023-02-19T17:21:22.021Z,81.46
2023-02-19T17:23:38.319Z,82.09
2023-02-19T17:25:54.586Z,81.98
2023-02-19T17:28:11.078Z,81.49
2023-02-19T17:30:27.827Z,81.65
2023-02-19T17:32:44.191Z,82.13
2023-02-19T17:35:00.520Z,82.40
2023-02-19T17:37:17.359Z,84.20
2023-02-19T17:39:33.701Z,83.92
2023-02-19T17:41:50.020Z,84.49
2023-02-19T17:44:06.555Z,83.27
2023-02-19T17:46:22.953Z,84.52
2023-02-19T17:48:39.653Z,84.87
2023-02-19T17:50:56.008Z,84.81
2023-02-19T17:53:12.730Z,83.79
2023-02-19T17:55:29.230Z,84.42
2023-02-19T17:57:45.655Z,85.56
2023-02-19T18:00:02.008Z,85.69
2023-02-19T18:02:18.522Z,84.97
2023-02-19T18:04:36.603Z,85.87
2023-02-19T18:06:53.324Z,84.92
2023-02-19T18:09:09.649Z,84.66
2023-02-19T18:11:26.101Z,85.32
2023-02-19T18:13:42.645Z,84.50
2023-02-19T18:15:59.327Z,85.83
2023-02-19T18:18:15.811Z,85.87
2023-02-19T18:20:32.176Z,85.09
2023-02-19T18:22:48.557Z,86.54
2023-02-19T18:25:05.247Z,86.94
2023-02-19T18:27:21.682Z,86.49
2023-02-19T18:29:38.030Z,86.97
2023-02-19T18:31:54.623Z,85.75
2023-02-19T18:34:11.107Z,86.83
2023-02-19T18:36:27.871Z,86.94
2023-02-19T18:38:44.526Z,86.25
2023-02-19T18:41:01.327Z,85.76
2023-02-19T18:43:18.079Z,86.92
2023-02-19T18:45:34.398Z,86.92
2023-02-19T18:47:51.110Z,85.54
2023-02-19T18:50:07.735Z,86.53
2023-02-19T18:52:24.040Z,86.97
2023-02-19T18:54:40.391Z,87.15
2023-02-19T18:56:56.841Z,87.55
2023-02-19T18:59:13.569Z,87.73
2023-02-19T19:01:30.091Z,86.98
2023-02-19T19:03:46.512Z,85.43
2023-02-19T19:06:03.147Z,86.73
2023-02-19T19:08:19.937Z,84.43
2023-02-19T19:10:36.663Z,83.91
2023-02-19T19:12:53.001Z,83.61
2023-02-19T19:15:09.805Z,84.46
2023-02-19T19:17:26.266Z,83.72
2023-02-19T19:19:42.570Z,83.47
2023-02-19T19:21:58.912Z,83.29
2023-02-19T19:24:15.347Z,83.33
2023-02-19T19:26:32.058Z,82.51
2023-02-19T19:28:48.537Z,81.06
2023-02-19T19:31:04.880Z,82.17
2023-02-19T19:33:21.434Z,83.19
2023-02-19T19:35:37.928Z,82.49
2023-02-19T19:37:54.258Z,82.36
2023-02-19T19:40:11.036Z,82.43
2023-02-19T19:42:27.462Z,82.53
2023-02-19T19:44:44.189Z,82.57
2023-02-19T19:47:00.593Z,83.66
2023-02-19T19:49:17.340Z,82.42
2023-02-19T19:51:33.845Z,81.31
2023-02-19T19:53:50.231Z,81.30
2023-02-19T19:56:06.926Z,81.59
2023-02-19T19:58:23.291Z,81.62
2023-02-19T20:00:39.591Z,82.06
2023-02-19T20:02:56.181Z,82.98
2023-02-19T20:05:12.967Z,82.09
2023-02-19T20:07:29.409Z,82.74
2023-02-19T20:09:45.826Z,83.45
2023-02-19T20:12:02.532Z,82.60
2023-02-19T20:14:18.854Z,83.31
2023-02-19T20:16:35.348Z,82.41
2023-02-19T20:18:51.851Z,83.74
2023-02-19T20:21:08.631Z,83.41
2023-02-19T20:23:27.274Z,83.57
2023-02-19T20:25:43.688Z,82.29
2023-02-19T20:28:00.123Z,83.83
2023-02-19T20:30:16.967Z,83.46
2023-02-19T20:32:33.731Z,83.56
2023-02-19T20:34:50.466Z,84.01
2023-02-19T20:37:06.797Z,84.15
2023-02-19T20:39:23.480Z,83.65
2023-02-19T20:41:40.009Z,82.85
2023-02-19T20:43:56.455Z,82.71
2023-02-19T20:46:13.393Z,83.60
2023-02-19T20:48:30.028Z,84.02
2023-02-19T20:50:46.423Z,82.81
2023-02-19T20:53:02.766Z,83.77
2023-02-19T20:55:19.197Z,83.89
2023-02-19T20:57:35.645Z,83.66
2023-02-19T20:59:52.276Z,84.08
2023-02-19T21:02:08.802Z,84.49
2023-02-19T21:04:25.214Z,83.58
2023-02-19T21:06:41.596Z,83.53
2023-02-19T21:08:58.592Z,84.62
2023-02-19T21:11:15.142Z,83.91
2023-02-19T21:13:31.775Z,84.49
2023-02-19T21:15:48.207Z,83.67
2023-02-19T21:18:04.704Z,84.96
2023-02-19T21:20:21.214Z,83.73
2023-02-19T21:22:37.680Z,84.73
2023-02-19T21:24:54.483Z,83.75
2023-02-19T21:27:10.831Z,84.79
2023-02-19T21:29:27.402Z,84.01
2023-02-19T21:31:44.246Z,84.70
2023-02-19T21:34:00.701Z,84.18
2023-02-19T21:36:17.028Z,85.18
2023-02-19T21:38:33.366Z,84.86
2023-02-19T21:40:49.696Z,84.19
2023-02-19T21:43:06.245Z,83.78
2023-02-19T21:45:22.610Z,84.46
2023-02-19T21:47:39.291Z,84.25
2023-02-19T21:49:56.031Z,84.06
2023-02-19T21:52:12.432Z,85.44
2023-02-19T21:54:28.878Z,83.71
2023-02-19T21:56:45.235Z,83.85
2023-02-19T21:59:01.998Z,83.94
2023-02-19T22:01:18.738Z,84.34
2023-02-19T22:03:35.076Z,83.43
2023-02-19T22:05:51.774Z,83.26
2023-02-19T22:08:08.106Z,83.76
2023-02-19T22:10:24.694Z,84.14
2023-02-19T22:12:41.075Z,81.74
2023-02-19T22:14:57.411Z,82.44
2023-02-19T22:17:14.131Z,80.44
2023-02-19T22:19:30.709Z,80.89
2023-02-19T22:21:47.177Z,79.83
2023-02-19T22:24:03.496Z,80.40
2023-02-19T22:26:20.100Z,79.83
2023-02-19T22:28:36.551Z,80.81
2023-02-19T22:30:52.932Z,80.34
2023-02-19T22:33:09.693Z,80.57
2023-02-19T22:35:26.348Z,80.47
2023-02-19T22:37:42.983Z,81.76
2023-02-19T22:39:59.284Z,82.09
2023-02-19T22:42:15.880Z,81.08
2023-02-19T22:44:32.613Z,81.60
2023-02-19T22:46:48.984Z,81.80
2023-02-19T22:49:05.640Z,81.94
2023-02-19T22:51:21.935Z,82.70
2023-02-19T22:53:38.388Z,83.00
2023-02-19T22:55:54.739Z,82.94
2023-02-19T22:58:11.234Z,83.54
2023-02-19T23:00:27.948Z,84.01
2023-02-19T23:02:44.591Z,83.50
2023-02-19T23:05:01.359Z,84.31
2023-02-19T23:07:18.085Z,84.40
2023-02-19T23:09:34.425Z,84.57
2023-02-19T23:11:50.893Z,84.41
2023-02-19T23:14:07.565Z,84.81
2023-02-19T23:16:24.002Z,85.53
2023-02-19T23:18:40.429Z,85.44
2023-02-19T23:20:56.912Z,85.95
2023-02-19T23:23:13.364Z,86.85
2023-02-19T23:25:29.863Z,86.69
2023-02-19T23:27:46.168Z,85.49
2023-02-19T23:30:02.587Z,86.31
2023-02-19T23:32:19.540Z,86.51
2023-02-19T23:34:35.846Z,86.88
2023-02-19T23:36:52.582Z,86.49
2023-02-19T23:39:09.014Z,86.38
2023-02-19T23:41:25.586Z,87.15
2023-02-19T23:43:41.912Z,86.79
2023-02-19T23:45:58.428Z,86.44
2023-02-19T23:48:14.868Z,86.70
2023-02-19T23:50:31.553Z,86.90
2023-02-19T23:52:48.000Z,86.80
2023-02-19T23:55:04.430Z,86.46
2023-02-19T23:57:21.142Z,86.81
2023-02-19T23:59:37.843Z,87.38
